sensor_id;sensor_type;location;lat;lon;timestamp;P1;durP1;ratioP1;P2;durP2;ratioP2
8312;SDS011;4194;43.408;24.626;2023-06-10T00:01:45;9.00;;;5.40;;
8312;SDS011;4194;43.408;24.626;2023-06-10T00:04:12;8.73;;;5.60;;
8312;SDS011;4194;43.408;24.626;2023-06-10T00:06:44;7.77;;;4.67;;
8312;SDS011;4194;43.408;24.626;2023-06-10T00:09:13;6.47;;;4.93;;
8312;SDS011;4194;43.408;24.626;2023-06-10T00:11:39;4.70;;;3.53;;
8312;SDS011;4194;43.408;24.626;2023-06-10T00:14:05;4.33;;;3.20;;
8312;SDS011;4194;43.408;24.626;2023-06-10T00:16:31;6.77;;;3.80;;
8312;SDS011;4194;43.408;24.626;2023-06-10T00:18:59;9.03;;;3.33;;
8312;SDS011;4194;43.408;24.626;2023-06-10T00:21:29;4.33;;;3.17;;
8312;SDS011;4194;43.408;24.626;2023-06-10T00:23:55;4.97;;;3.10;;
8312;SDS011;4194;43.408;24.626;2023-06-10T00:26:24;5.47;;;3.97;;
8312;SDS011;4194;43.408;24.626;2023-06-10T00:28:51;4.80;;;3.10;;
8312;SDS011;4194;43.408;24.626;2023-06-10T00:31:17;6.03;;;3.40;;
8312;SDS011;4194;43.408;24.626;2023-06-10T00:33:43;7.00;;;3.23;;
8312;SDS011;4194;43.408;24.626;2023-06-10T00:36:09;5.57;;;3.43;;
8312;SDS011;4194;43.408;24.626;2023-06-10T00:38:35;5.97;;;3.53;;
8312;SDS011;4194;43.408;24.626;2023-06-10T00:41:00;7.33;;;3.53;;
8312;SDS011;4194;43.408;24.626;2023-06-10T00:43:26;4.93;;;3.17;;
8312;SDS011;4194;43.408;24.626;2023-06-10T00:45:52;6.87;;;3.40;;
8312;SDS011;4194;43.408;24.626;2023-06-10T00:48:18;6.00;;;3.50;;
8312;SDS011;4194;43.408;24.626;2023-06-10T00:50:44;5.10;;;3.33;;
8312;SDS011;4194;43.408;24.626;2023-06-10T00:53:11;6.80;;;3.10;;
8312;SDS011;4194;43.408;24.626;2023-06-10T00:55:37;5.53;;;3.30;;
8312;SDS011;4194;43.408;24.626;2023-06-10T00:58:03;6.93;;;4.07;;
8312;SDS011;4194;43.408;24.626;2023-06-10T01:00:29;3.93;;;3.53;;
8312;SDS011;4194;43.408;24.626;2023-06-10T01:02:55;4.73;;;3.60;;
8312;SDS011;4194;43.408;24.626;2023-06-10T01:05:22;7.00;;;3.93;;
8312;SDS011;4194;43.408;24.626;2023-06-10T01:10:57;4.27;;;3.43;;
8312;SDS011;4194;43.408;24.626;2023-06-10T01:13:25;4.27;;;3.20;;
8312;SDS011;4194;43.408;24.626;2023-06-10T01:15:57;4.53;;;3.70;;
8312;SDS011;4194;43.408;24.626;2023-06-10T01:18:30;4.63;;;3.63;;
8312;SDS011;4194;43.408;24.626;2023-06-10T01:20:56;4.20;;;3.20;;
8312;SDS011;4194;43.408;24.626;2023-06-10T01:23:22;5.37;;;3.37;;
8312;SDS011;4194;43.408;24.626;2023-06-10T01:26:07;5.47;;;3.53;;
8312;SDS011;4194;43.408;24.626;2023-06-10T01:28:38;3.97;;;3.50;;
8312;SDS011;4194;43.408;24.626;2023-06-10T01:33:52;6.67;;;4.17;;
8312;SDS011;4194;43.408;24.626;2023-06-10T01:36:19;5.17;;;3.80;;
8312;SDS011;4194;43.408;24.626;2023-06-10T01:38:48;3.87;;;3.47;;
8312;SDS011;4194;43.408;24.626;2023-06-10T01:41:16;6.77;;;3.70;;
8312;SDS011;4194;43.408;24.626;2023-06-10T01:43:43;3.85;;;3.45;;
8312;SDS011;4194;43.408;24.626;2023-06-10T01:46:10;8.23;;;3.50;;
8312;SDS011;4194;43.408;24.626;2023-06-10T01:48:40;4.90;;;3.10;;
8312;SDS011;4194;43.408;24.626;2023-06-10T01:51:06;4.73;;;3.07;;
8312;SDS011;4194;43.408;24.626;2023-06-10T01:53:32;4.13;;;3.73;;
8312;SDS011;4194;43.408;24.626;2023-06-10T01:55:58;7.47;;;4.07;;
8312;SDS011;4194;43.408;24.626;2023-06-10T01:58:24;6.07;;;3.70;;
8312;SDS011;4194;43.408;24.626;2023-06-10T02:00:50;11.70;;;3.77;;
8312;SDS011;4194;43.408;24.626;2023-06-10T02:03:16;3.60;;;3.30;;
8312;SDS011;4194;43.408;24.626;2023-06-10T02:05:42;5.10;;;3.67;;
8312;SDS011;4194;43.408;24.626;2023-06-10T02:08:08;4.43;;;3.57;;
8312;SDS011;4194;43.408;24.626;2023-06-10T02:10:33;8.03;;;3.63;;
8312;SDS011;4194;43.408;24.626;2023-06-10T02:12:59;4.30;;;3.73;;
8312;SDS011;4194;43.408;24.626;2023-06-10T02:15:25;4.80;;;3.73;;
8312;SDS011;4194;43.408;24.626;2023-06-10T02:17:51;5.10;;;3.47;;
8312;SDS011;4194;43.408;24.626;2023-06-10T02:20:17;7.03;;;3.90;;
8312;SDS011;4194;43.408;24.626;2023-06-10T02:22:43;4.77;;;3.83;;
8312;SDS011;4194;43.408;24.626;2023-06-10T02:25:08;5.37;;;4.00;;
8312;SDS011;4194;43.408;24.626;2023-06-10T02:27:35;5.33;;;3.83;;
8312;SDS011;4194;43.408;24.626;2023-06-10T02:30:00;7.57;;;4.50;;
8312;SDS011;4194;43.408;24.626;2023-06-10T02:32:26;7.10;;;4.50;;
8312;SDS011;4194;43.408;24.626;2023-06-10T02:34:52;6.70;;;3.93;;
8312;SDS011;4194;43.408;24.626;2023-06-10T02:37:18;4.97;;;4.47;;
8312;SDS011;4194;43.408;24.626;2023-06-10T02:39:44;6.80;;;3.97;;
8312;SDS011;4194;43.408;24.626;2023-06-10T02:42:10;11.87;;;4.50;;
8312;SDS011;4194;43.408;24.626;2023-06-10T02:44:37;5.03;;;3.97;;
8312;SDS011;4194;43.408;24.626;2023-06-10T02:47:03;5.10;;;4.33;;
8312;SDS011;4194;43.408;24.626;2023-06-10T02:49:29;5.47;;;4.07;;
8312;SDS011;4194;43.408;24.626;2023-06-10T02:51:55;9.03;;;4.60;;
8312;SDS011;4194;43.408;24.626;2023-06-10T02:54:22;6.83;;;4.13;;
8312;SDS011;4194;43.408;24.626;2023-06-10T02:56:48;7.87;;;4.10;;
8312;SDS011;4194;43.408;24.626;2023-06-10T02:59:14;7.07;;;3.97;;
8312;SDS011;4194;43.408;24.626;2023-06-10T03:01:40;8.27;;;4.40;;
8312;SDS011;4194;43.408;24.626;2023-06-10T03:04:07;6.93;;;4.80;;
8312;SDS011;4194;43.408;24.626;2023-06-10T03:06:34;5.93;;;4.27;;
8312;SDS011;4194;43.408;24.626;2023-06-10T03:09:00;5.30;;;4.20;;
8312;SDS011;4194;43.408;24.626;2023-06-10T03:11:26;8.00;;;4.23;;
8312;SDS011;4194;43.408;24.626;2023-06-10T03:13:52;6.07;;;3.83;;
8312;SDS011;4194;43.408;24.626;2023-06-10T03:16:21;4.73;;;4.07;;
8312;SDS011;4194;43.408;24.626;2023-06-10T03:18:47;7.63;;;4.50;;
8312;SDS011;4194;43.408;24.626;2023-06-10T03:21:14;6.80;;;4.53;;
8312;SDS011;4194;43.408;24.626;2023-06-10T03:23:39;9.43;;;4.90;;
8312;SDS011;4194;43.408;24.626;2023-06-10T03:26:05;4.87;;;3.90;;
8312;SDS011;4194;43.408;24.626;2023-06-10T03:28:31;7.17;;;3.63;;
8312;SDS011;4194;43.408;24.626;2023-06-10T03:30:57;9.40;;;4.37;;
8312;SDS011;4194;43.408;24.626;2023-06-10T03:33:23;4.67;;;3.80;;
8312;SDS011;4194;43.408;24.626;2023-06-10T03:35:48;4.90;;;4.37;;
8312;SDS011;4194;43.408;24.626;2023-06-10T03:38:14;5.20;;;4.13;;
8312;SDS011;4194;43.408;24.626;2023-06-10T03:40:40;8.37;;;4.10;;
8312;SDS011;4194;43.408;24.626;2023-06-10T03:43:06;6.53;;;4.10;;
8312;SDS011;4194;43.408;24.626;2023-06-10T03:45:31;6.00;;;4.10;;
8312;SDS011;4194;43.408;24.626;2023-06-10T03:47:57;6.17;;;3.80;;
8312;SDS011;4194;43.408;24.626;2023-06-10T03:50:23;5.47;;;3.67;;
8312;SDS011;4194;43.408;24.626;2023-06-10T03:52:49;7.47;;;3.97;;
8312;SDS011;4194;43.408;24.626;2023-06-10T03:55:15;10.50;;;4.27;;
8312;SDS011;4194;43.408;24.626;2023-06-10T03:57:42;5.27;;;3.57;;
8312;SDS011;4194;43.408;24.626;2023-06-10T04:00:08;6.23;;;3.53;;
8312;SDS011;4194;43.408;24.626;2023-06-10T04:02:38;10.20;;;3.97;;
8312;SDS011;4194;43.408;24.626;2023-06-10T04:05:14;5.73;;;4.03;;
8312;SDS011;4194;43.408;24.626;2023-06-10T04:07:43;4.23;;;3.60;;
8312;SDS011;4194;43.408;24.626;2023-06-10T04:10:12;7.87;;;4.43;;
8312;SDS011;4194;43.408;24.626;2023-06-10T04:12:38;7.10;;;4.27;;
8312;SDS011;4194;43.408;24.626;2023-06-10T04:15:04;8.13;;;3.97;;
8312;SDS011;4194;43.408;24.626;2023-06-10T04:17:31;4.53;;;3.67;;
8312;SDS011;4194;43.408;24.626;2023-06-10T04:19:57;6.57;;;3.77;;
8312;SDS011;4194;43.408;24.626;2023-06-10T04:22:25;4.40;;;3.90;;
8312;SDS011;4194;43.408;24.626;2023-06-10T04:24:52;4.87;;;3.70;;
8312;SDS011;4194;43.408;24.626;2023-06-10T04:27:17;4.77;;;3.80;;
8312;SDS011;4194;43.408;24.626;2023-06-10T04:29:43;8.20;;;4.07;;
8312;SDS011;4194;43.408;24.626;2023-06-10T04:32:09;6.60;;;4.33;;
8312;SDS011;4194;43.408;24.626;2023-06-10T04:34:35;6.37;;;4.27;;
8312;SDS011;4194;43.408;24.626;2023-06-10T04:37:04;6.73;;;3.87;;
8312;SDS011;4194;43.408;24.626;2023-06-10T04:39:30;8.73;;;3.83;;
8312;SDS011;4194;43.408;24.626;2023-06-10T04:41:55;4.27;;;3.87;;
8312;SDS011;4194;43.408;24.626;2023-06-10T04:44:21;6.57;;;4.30;;
8312;SDS011;4194;43.408;24.626;2023-06-10T04:46:47;5.70;;;4.23;;
8312;SDS011;4194;43.408;24.626;2023-06-10T04:49:13;7.23;;;4.53;;
8312;SDS011;4194;43.408;24.626;2023-06-10T04:51:41;5.70;;;4.13;;
8312;SDS011;4194;43.408;24.626;2023-06-10T04:54:07;4.77;;;3.93;;
8312;SDS011;4194;43.408;24.626;2023-06-10T04:56:33;7.57;;;4.07;;
8312;SDS011;4194;43.408;24.626;2023-06-10T04:58:59;6.30;;;3.73;;
8312;SDS011;4194;43.408;24.626;2023-06-10T05:01:25;7.47;;;4.03;;
8312;SDS011;4194;43.408;24.626;2023-06-10T05:03:52;7.07;;;3.90;;
8312;SDS011;4194;43.408;24.626;2023-06-10T05:06:18;7.80;;;4.40;;
8312;SDS011;4194;43.408;24.626;2023-06-10T05:08:43;5.77;;;4.43;;
8312;SDS011;4194;43.408;24.626;2023-06-10T05:11:09;10.27;;;4.47;;
8312;SDS011;4194;43.408;24.626;2023-06-10T05:13:35;7.03;;;4.40;;
8312;SDS011;4194;43.408;24.626;2023-06-10T05:16:01;4.33;;;3.93;;
8312;SDS011;4194;43.408;24.626;2023-06-10T05:18:27;5.20;;;4.03;;
8312;SDS011;4194;43.408;24.626;2023-06-10T05:20:53;6.77;;;3.63;;
8312;SDS011;4194;43.408;24.626;2023-06-10T05:23:19;4.43;;;3.90;;
8312;SDS011;4194;43.408;24.626;2023-06-10T05:25:45;7.67;;;4.83;;
8312;SDS011;4194;43.408;24.626;2023-06-10T05:28:11;4.30;;;3.90;;
8312;SDS011;4194;43.408;24.626;2023-06-10T05:30:37;7.63;;;3.83;;
8312;SDS011;4194;43.408;24.626;2023-06-10T05:33:03;4.83;;;4.30;;
8312;SDS011;4194;43.408;24.626;2023-06-10T05:35:29;6.53;;;4.47;;
8312;SDS011;4194;43.408;24.626;2023-06-10T05:37:55;8.03;;;4.00;;
8312;SDS011;4194;43.408;24.626;2023-06-10T05:40:21;6.97;;;4.20;;
8312;SDS011;4194;43.408;24.626;2023-06-10T05:42:47;5.47;;;3.83;;
8312;SDS011;4194;43.408;24.626;2023-06-10T05:45:13;6.77;;;3.70;;
8312;SDS011;4194;43.408;24.626;2023-06-10T05:47:38;8.40;;;3.50;;
8312;SDS011;4194;43.408;24.626;2023-06-10T05:50:05;7.10;;;3.87;;
8312;SDS011;4194;43.408;24.626;2023-06-10T05:52:35;6.93;;;4.05;;
8312;SDS011;4194;43.408;24.626;2023-06-10T05:55:04;4.40;;;3.97;;
8312;SDS011;4194;43.408;24.626;2023-06-10T05:57:30;4.53;;;3.40;;
8312;SDS011;4194;43.408;24.626;2023-06-10T05:59:56;4.83;;;3.90;;
8312;SDS011;4194;43.408;24.626;2023-06-10T06:02:22;11.77;;;4.07;;
8312;SDS011;4194;43.408;24.626;2023-06-10T06:04:48;4.37;;;3.77;;
8312;SDS011;4194;43.408;24.626;2023-06-10T06:07:13;10.93;;;4.10;;
8312;SDS011;4194;43.408;24.626;2023-06-10T06:09:39;5.87;;;4.37;;
8312;SDS011;4194;43.408;24.626;2023-06-10T06:12:05;4.87;;;3.83;;
8312;SDS011;4194;43.408;24.626;2023-06-10T06:14:32;6.20;;;3.57;;
8312;SDS011;4194;43.408;24.626;2023-06-10T06:17:01;4.73;;;3.70;;
8312;SDS011;4194;43.408;24.626;2023-06-10T06:19:27;5.40;;;3.80;;
8312;SDS011;4194;43.408;24.626;2023-06-10T06:21:53;4.40;;;4.00;;
8312;SDS011;4194;43.408;24.626;2023-06-10T06:24:18;5.83;;;3.60;;
8312;SDS011;4194;43.408;24.626;2023-06-10T06:26:45;7.57;;;3.93;;
8312;SDS011;4194;43.408;24.626;2023-06-10T06:29:11;5.07;;;4.23;;
8312;SDS011;4194;43.408;24.626;2023-06-10T06:31:36;4.53;;;3.53;;
8312;SDS011;4194;43.408;24.626;2023-06-10T06:34:02;4.17;;;3.77;;
8312;SDS011;4194;43.408;24.626;2023-06-10T06:36:28;6.47;;;3.80;;
8312;SDS011;4194;43.408;24.626;2023-06-10T06:38:53;7.90;;;3.93;;
8312;SDS011;4194;43.408;24.626;2023-06-10T06:41:19;5.47;;;3.90;;
8312;SDS011;4194;43.408;24.626;2023-06-10T06:43:46;9.43;;;4.07;;
8312;SDS011;4194;43.408;24.626;2023-06-10T06:46:12;4.97;;;4.13;;
8312;SDS011;4194;43.408;24.626;2023-06-10T06:48:38;5.80;;;4.23;;
8312;SDS011;4194;43.408;24.626;2023-06-10T06:51:04;5.57;;;4.50;;
8312;SDS011;4194;43.408;24.626;2023-06-10T06:53:30;5.73;;;4.33;;
8312;SDS011;4194;43.408;24.626;2023-06-10T06:55:55;6.63;;;4.53;;
8312;SDS011;4194;43.408;24.626;2023-06-10T06:58:21;5.73;;;4.20;;
8312;SDS011;4194;43.408;24.626;2023-06-10T07:00:47;5.80;;;4.47;;
8312;SDS011;4194;43.408;24.626;2023-06-10T07:03:12;5.67;;;4.83;;
8312;SDS011;4194;43.408;24.626;2023-06-10T07:05:38;7.37;;;4.03;;
8312;SDS011;4194;43.408;24.626;2023-06-10T07:08:04;5.43;;;4.43;;
8312;SDS011;4194;43.408;24.626;2023-06-10T07:10:30;6.67;;;4.40;;
8312;SDS011;4194;43.408;24.626;2023-06-10T07:12:55;4.33;;;3.93;;
8312;SDS011;4194;43.408;24.626;2023-06-10T07:15:21;8.90;;;4.10;;
8312;SDS011;4194;43.408;24.626;2023-06-10T07:17:47;7.47;;;4.50;;
8312;SDS011;4194;43.408;24.626;2023-06-10T07:20:12;7.90;;;4.10;;
8312;SDS011;4194;43.408;24.626;2023-06-10T07:22:41;4.50;;;3.67;;
8312;SDS011;4194;43.408;24.626;2023-06-10T07:25:07;7.03;;;4.67;;
8312;SDS011;4194;43.408;24.626;2023-06-10T07:27:33;4.40;;;4.00;;
8312;SDS011;4194;43.408;24.626;2023-06-10T07:29:59;7.23;;;4.20;;
8312;SDS011;4194;43.408;24.626;2023-06-10T07:32:26;4.77;;;4.07;;
8312;SDS011;4194;43.408;24.626;2023-06-10T07:34:51;5.60;;;4.17;;
8312;SDS011;4194;43.408;24.626;2023-06-10T07:37:17;5.63;;;4.27;;
8312;SDS011;4194;43.408;24.626;2023-06-10T07:39:44;11.13;;;4.80;;
8312;SDS011;4194;43.408;24.626;2023-06-10T07:42:10;6.60;;;4.77;;
8312;SDS011;4194;43.408;24.626;2023-06-10T07:44:36;9.83;;;4.93;;
8312;SDS011;4194;43.408;24.626;2023-06-10T07:47:01;6.37;;;4.37;;
8312;SDS011;4194;43.408;24.626;2023-06-10T07:49:27;7.07;;;4.73;;
8312;SDS011;4194;43.408;24.626;2023-06-10T07:51:54;5.57;;;4.60;;
8312;SDS011;4194;43.408;24.626;2023-06-10T07:54:20;8.40;;;4.30;;
8312;SDS011;4194;43.408;24.626;2023-06-10T07:56:46;6.90;;;4.30;;
8312;SDS011;4194;43.408;24.626;2023-06-10T07:59:13;5.17;;;4.40;;
8312;SDS011;4194;43.408;24.626;2023-06-10T08:01:38;6.57;;;4.70;;
8312;SDS011;4194;43.408;24.626;2023-06-10T08:04:05;7.23;;;4.60;;
8312;SDS011;4194;43.408;24.626;2023-06-10T08:06:31;6.20;;;4.17;;
8312;SDS011;4194;43.408;24.626;2023-06-10T08:08:57;6.93;;;4.10;;
8312;SDS011;4194;43.408;24.626;2023-06-10T08:11:23;6.20;;;4.10;;
8312;SDS011;4194;43.408;24.626;2023-06-10T08:13:49;6.37;;;4.30;;
8312;SDS011;4194;43.408;24.626;2023-06-10T08:16:14;9.20;;;4.67;;
8312;SDS011;4194;43.408;24.626;2023-06-10T08:18:40;6.87;;;3.70;;
8312;SDS011;4194;43.408;24.626;2023-06-10T08:21:06;4.60;;;4.07;;
8312;SDS011;4194;43.408;24.626;2023-06-10T08:23:32;4.70;;;4.17;;
8312;SDS011;4194;43.408;24.626;2023-06-10T08:25:57;4.93;;;4.37;;
8312;SDS011;4194;43.408;24.626;2023-06-10T08:28:23;7.10;;;4.77;;
8312;SDS011;4194;43.408;24.626;2023-06-10T08:30:49;6.20;;;4.30;;
8312;SDS011;4194;43.408;24.626;2023-06-10T08:33:14;4.47;;;4.07;;
8312;SDS011;4194;43.408;24.626;2023-06-10T08:35:40;5.30;;;4.23;;
8312;SDS011;4194;43.408;24.626;2023-06-10T08:38:06;6.73;;;4.37;;
8312;SDS011;4194;43.408;24.626;2023-06-10T08:40:32;6.27;;;4.30;;
8312;SDS011;4194;43.408;24.626;2023-06-10T08:43:08;6.83;;;4.50;;
8312;SDS011;4194;43.408;24.626;2023-06-10T08:45:42;7.53;;;4.57;;
8312;SDS011;4194;43.408;24.626;2023-06-10T08:48:10;4.33;;;3.93;;
8312;SDS011;4194;43.408;24.626;2023-06-10T08:50:39;4.20;;;3.80;;
8312;SDS011;4194;43.408;24.626;2023-06-10T08:53:06;4.97;;;3.70;;
8312;SDS011;4194;43.408;24.626;2023-06-10T08:55:33;6.77;;;4.70;;
8312;SDS011;4194;43.408;24.626;2023-06-10T08:58:03;8.67;;;4.07;;
8312;SDS011;4194;43.408;24.626;2023-06-10T09:00:29;5.40;;;3.83;;
8312;SDS011;4194;43.408;24.626;2023-06-10T09:02:56;7.80;;;4.10;;
8312;SDS011;4194;43.408;24.626;2023-06-10T09:05:23;5.47;;;4.27;;
8312;SDS011;4194;43.408;24.626;2023-06-10T09:07:48;7.93;;;4.53;;
8312;SDS011;4194;43.408;24.626;2023-06-10T09:10:16;5.00;;;4.10;;
8312;SDS011;4194;43.408;24.626;2023-06-10T09:12:42;4.10;;;3.70;;
8312;SDS011;4194;43.408;24.626;2023-06-10T09:15:07;6.90;;;4.10;;
8312;SDS011;4194;43.408;24.626;2023-06-10T09:17:34;7.90;;;4.27;;
8312;SDS011;4194;43.408;24.626;2023-06-10T09:20:02;4.23;;;3.67;;
8312;SDS011;4194;43.408;24.626;2023-06-10T09:22:27;5.73;;;4.17;;
8312;SDS011;4194;43.408;24.626;2023-06-10T09:25:03;4.17;;;3.77;;
8312;SDS011;4194;43.408;24.626;2023-06-10T09:27:54;6.67;;;4.17;;
8312;SDS011;4194;43.408;24.626;2023-06-10T09:32:50;6.27;;;3.87;;
8312;SDS011;4194;43.408;24.626;2023-06-10T09:35:20;9.03;;;4.30;;
8312;SDS011;4194;43.408;24.626;2023-06-10T09:37:48;4.30;;;3.90;;
8312;SDS011;4194;43.408;24.626;2023-06-10T09:40:18;4.77;;;4.07;;
8312;SDS011;4194;43.408;24.626;2023-06-10T09:42:45;6.30;;;3.73;;
8312;SDS011;4194;43.408;24.626;2023-06-10T09:45:14;4.87;;;4.03;;
8312;SDS011;4194;43.408;24.626;2023-06-10T09:47:39;7.13;;;4.00;;
8312;SDS011;4194;43.408;24.626;2023-06-10T09:50:05;5.27;;;3.67;;
8312;SDS011;4194;43.408;24.626;2023-06-10T09:52:31;5.40;;;3.97;;
8312;SDS011;4194;43.408;24.626;2023-06-10T09:55:00;5.13;;;3.80;;
8312;SDS011;4194;43.408;24.626;2023-06-10T09:57:30;5.97;;;3.90;;
8312;SDS011;4194;43.408;24.626;2023-06-10T10:00:10;6.30;;;3.93;;
8312;SDS011;4194;43.408;24.626;2023-06-10T10:02:44;4.63;;;3.83;;
8312;SDS011;4194;43.408;24.626;2023-06-10T10:05:14;7.80;;;4.47;;
8312;SDS011;4194;43.408;24.626;2023-06-10T10:07:42;7.90;;;4.60;;
8312;SDS011;4194;43.408;24.626;2023-06-10T10:10:08;5.00;;;4.10;;
8312;SDS011;4194;43.408;24.626;2023-06-10T10:12:36;5.10;;;3.70;;
8312;SDS011;4194;43.408;24.626;2023-06-10T10:15:03;6.23;;;4.37;;
8312;SDS011;4194;43.408;24.626;2023-06-10T10:17:33;4.33;;;3.93;;
8312;SDS011;4194;43.408;24.626;2023-06-10T10:20:02;8.93;;;4.43;;
8312;SDS011;4194;43.408;24.626;2023-06-10T10:22:31;5.67;;;4.00;;
8312;SDS011;4194;43.408;24.626;2023-06-10T10:25:02;5.80;;;4.00;;
8312;SDS011;4194;43.408;24.626;2023-06-10T10:27:44;7.67;;;4.40;;
8312;SDS011;4194;43.408;24.626;2023-06-10T10:30:24;7.13;;;4.47;;
8312;SDS011;4194;43.408;24.626;2023-06-10T10:35:28;4.63;;;4.00;;
8312;SDS011;4194;43.408;24.626;2023-06-10T10:37:57;7.07;;;4.57;;
8312;SDS011;4194;43.408;24.626;2023-06-10T10:40:23;7.40;;;4.73;;
8312;SDS011;4194;43.408;24.626;2023-06-10T10:42:50;5.83;;;4.73;;
8312;SDS011;4194;43.408;24.626;2023-06-10T10:45:16;5.50;;;4.10;;
8312;SDS011;4194;43.408;24.626;2023-06-10T10:47:43;5.00;;;3.70;;
8312;SDS011;4194;43.408;24.626;2023-06-10T10:50:14;7.00;;;4.27;;
8312;SDS011;4194;43.408;24.626;2023-06-10T10:52:58;6.60;;;4.20;;
8312;SDS011;4194;43.408;24.626;2023-06-10T10:55:26;7.63;;;3.90;;
8312;SDS011;4194;43.408;24.626;2023-06-10T10:57:56;6.97;;;3.93;;
8312;SDS011;4194;43.408;24.626;2023-06-10T11:00:34;5.17;;;3.93;;
8312;SDS011;4194;43.408;24.626;2023-06-10T11:05:31;8.10;;;4.13;;
8312;SDS011;4194;43.408;24.626;2023-06-10T11:08:04;6.83;;;3.70;;
8312;SDS011;4194;43.408;24.626;2023-06-10T11:10:34;6.50;;;3.73;;
8312;SDS011;4194;43.408;24.626;2023-06-10T11:13:00;4.43;;;3.40;;
8312;SDS011;4194;43.408;24.626;2023-06-10T11:15:31;5.65;;;3.80;;
8312;SDS011;4194;43.408;24.626;2023-06-10T11:24:00;4.20;;;3.08;;
8312;SDS011;4194;43.408;24.626;2023-06-10T11:26:18;4.68;;;3.28;;
8312;SDS011;4194;43.408;24.626;2023-06-10T11:31:38;4.65;;;3.55;;
8312;SDS011;4194;43.408;24.626;2023-06-10T11:34:06;4.15;;;3.80;;
8312;SDS011;4194;43.408;24.626;2023-06-10T11:36:32;4.13;;;3.55;;
8312;SDS011;4194;43.408;24.626;2023-06-10T11:39:03;3.67;;;3.38;;
8312;SDS011;4194;43.408;24.626;2023-06-10T11:41:30;3.85;;;3.47;;
8312;SDS011;4194;43.408;24.626;2023-06-10T11:43:57;6.63;;;3.45;;
8312;SDS011;4194;43.408;24.626;2023-06-10T11:46:32;5.10;;;3.47;;
8312;SDS011;4194;43.408;24.626;2023-06-10T11:48:59;6.43;;;3.58;;
8312;SDS011;4194;43.408;24.626;2023-06-10T11:51:34;5.63;;;3.67;;
8312;SDS011;4194;43.408;24.626;2023-06-10T11:54:02;3.92;;;3.53;;
8312;SDS011;4194;43.408;24.626;2023-06-10T11:56:28;6.43;;;3.10;;
8312;SDS011;4194;43.408;24.626;2023-06-10T11:58:56;5.85;;;3.05;;
8312;SDS011;4194;43.408;24.626;2023-06-10T12:01:24;7.43;;;3.47;;
8312;SDS011;4194;43.408;24.626;2023-06-10T12:04:04;6.47;;;3.60;;
8312;SDS011;4194;43.408;24.626;2023-06-10T12:06:47;4.55;;;3.38;;
8312;SDS011;4194;43.408;24.626;2023-06-10T12:11:48;3.50;;;3.20;;
8312;SDS011;4194;43.408;24.626;2023-06-10T12:17:20;6.95;;;3.30;;
8312;SDS011;4194;43.408;24.626;2023-06-10T12:19:46;4.78;;;3.40;;
8312;SDS011;4194;43.408;24.626;2023-06-10T12:22:13;3.83;;;3.40;;
8312;SDS011;4194;43.408;24.626;2023-06-10T12:24:45;5.35;;;3.10;;
8312;SDS011;4194;43.408;24.626;2023-06-10T12:27:24;6.38;;;2.92;;
8312;SDS011;4194;43.408;24.626;2023-06-10T12:29:51;5.15;;;3.50;;
8312;SDS011;4194;43.408;24.626;2023-06-10T12:32:20;4.85;;;3.25;;
8312;SDS011;4194;43.408;24.626;2023-06-10T12:34:50;5.68;;;3.47;;
8312;SDS011;4194;43.408;24.626;2023-06-10T12:37:26;4.00;;;3.10;;
8312;SDS011;4194;43.408;24.626;2023-06-10T12:39:52;6.47;;;3.27;;
8312;SDS011;4194;43.408;24.626;2023-06-10T12:42:21;7.17;;;3.40;;
8312;SDS011;4194;43.408;24.626;2023-06-10T12:44:52;5.40;;;3.50;;
8312;SDS011;4194;43.408;24.626;2023-06-10T12:47:18;40.97;;;10.63;;
8312;SDS011;4194;43.408;24.626;2023-06-10T12:49:44;22.67;;;7.67;;
8312;SDS011;4194;43.408;24.626;2023-06-10T12:52:10;20.60;;;7.50;;
8312;SDS011;4194;43.408;24.626;2023-06-10T12:54:36;17.27;;;7.20;;
8312;SDS011;4194;43.408;24.626;2023-06-10T12:57:02;20.73;;;7.97;;
8312;SDS011;4194;43.408;24.626;2023-06-10T12:59:28;19.53;;;7.37;;
8312;SDS011;4194;43.408;24.626;2023-06-10T13:01:54;5.87;;;4.10;;
8312;SDS011;4194;43.408;24.626;2023-06-10T13:04:20;11.17;;;4.90;;
8312;SDS011;4194;43.408;24.626;2023-06-10T13:06:47;13.03;;;6.83;;
8312;SDS011;4194;43.408;24.626;2023-06-10T13:09:14;11.73;;;7.20;;
8312;SDS011;4194;43.408;24.626;2023-06-10T13:11:40;12.60;;;6.37;;
8312;SDS011;4194;43.408;24.626;2023-06-10T13:14:07;7.40;;;5.03;;
8312;SDS011;4194;43.408;24.626;2023-06-10T13:16:34;7.23;;;6.10;;
8312;SDS011;4194;43.408;24.626;2023-06-10T13:19:03;7.20;;;5.07;;
8312;SDS011;4194;43.408;24.626;2023-06-10T13:21:30;7.80;;;5.30;;
8312;SDS011;4194;43.408;24.626;2023-06-10T13:23:57;6.00;;;5.10;;
8312;SDS011;4194;43.408;24.626;2023-06-10T13:26:22;7.97;;;5.47;;
8312;SDS011;4194;43.408;24.626;2023-06-10T13:28:48;7.77;;;4.70;;
8312;SDS011;4194;43.408;24.626;2023-06-10T13:31:14;7.83;;;5.00;;
8312;SDS011;4194;43.408;24.626;2023-06-10T13:33:41;6.17;;;3.60;;
8312;SDS011;4194;43.408;24.626;2023-06-10T13:36:08;6.10;;;3.90;;
8312;SDS011;4194;43.408;24.626;2023-06-10T13:38:34;4.33;;;3.90;;
8312;SDS011;4194;43.408;24.626;2023-06-10T13:41:00;4.57;;;3.47;;
8312;SDS011;4194;43.408;24.626;2023-06-10T13:43:26;3.90;;;3.30;;
8312;SDS011;4194;43.408;24.626;2023-06-10T13:45:51;6.30;;;3.10;;
8312;SDS011;4194;43.408;24.626;2023-06-10T13:48:17;4.00;;;3.20;;
8312;SDS011;4194;43.408;24.626;2023-06-10T13:50:43;4.63;;;2.83;;
8312;SDS011;4194;43.408;24.626;2023-06-10T13:53:10;3.27;;;2.70;;
8312;SDS011;4194;43.408;24.626;2023-06-10T13:55:36;2.70;;;2.50;;
8312;SDS011;4194;43.408;24.626;2023-06-10T13:58:02;2.50;;;2.30;;
8312;SDS011;4194;43.408;24.626;2023-06-10T14:00:28;3.20;;;2.03;;
8312;SDS011;4194;43.408;24.626;2023-06-10T14:02:54;3.07;;;2.20;;
8312;SDS011;4194;43.408;24.626;2023-06-10T14:05:19;3.07;;;2.30;;
8312;SDS011;4194;43.408;24.626;2023-06-10T14:07:45;10.90;;;2.80;;
8312;SDS011;4194;43.408;24.626;2023-06-10T14:10:11;2.78;;;2.17;;
8312;SDS011;4194;43.408;24.626;2023-06-10T14:12:37;5.88;;;3.13;;
8312;SDS011;4194;43.408;24.626;2023-06-10T14:15:02;3.60;;;2.85;;
8312;SDS011;4194;43.408;24.626;2023-06-10T14:17:28;2.88;;;2.58;;
8312;SDS011;4194;43.408;24.626;2023-06-10T14:19:54;5.95;;;2.88;;
8312;SDS011;4194;43.408;24.626;2023-06-10T14:22:20;5.78;;;3.13;;
8312;SDS011;4194;43.408;24.626;2023-06-10T14:24:45;3.05;;;2.53;;
8312;SDS011;4194;43.408;24.626;2023-06-10T14:27:12;3.30;;;2.50;;
8312;SDS011;4194;43.408;24.626;2023-06-10T14:29:38;8.07;;;3.70;;
8312;SDS011;4194;43.408;24.626;2023-06-10T14:32:03;3.28;;;2.63;;
8312;SDS011;4194;43.408;24.626;2023-06-10T14:34:29;3.53;;;2.90;;
8312;SDS011;4194;43.408;24.626;2023-06-10T14:36:58;3.58;;;3.10;;
8312;SDS011;4194;43.408;24.626;2023-06-10T14:39:25;5.53;;;3.50;;
8312;SDS011;4194;43.408;24.626;2023-06-10T14:41:51;4.23;;;3.30;;
8312;SDS011;4194;43.408;24.626;2023-06-10T14:44:19;5.67;;;3.37;;
8312;SDS011;4194;43.408;24.626;2023-06-10T14:46:45;11.87;;;3.80;;
8312;SDS011;4194;43.408;24.626;2023-06-10T14:49:11;7.00;;;3.30;;
8312;SDS011;4194;43.408;24.626;2023-06-10T14:51:36;7.00;;;2.80;;
8312;SDS011;4194;43.408;24.626;2023-06-10T14:54:02;4.97;;;2.70;;
8312;SDS011;4194;43.408;24.626;2023-06-10T14:56:28;5.13;;;1.95;;
8312;SDS011;4194;43.408;24.626;2023-06-10T14:58:54;7.13;;;2.30;;
8312;SDS011;4194;43.408;24.626;2023-06-10T15:01:20;4.65;;;2.20;;
8312;SDS011;4194;43.408;24.626;2023-06-10T15:03:45;2.58;;;2.20;;
8312;SDS011;4194;43.408;24.626;2023-06-10T15:06:11;7.03;;;2.47;;
8312;SDS011;4194;43.408;24.626;2023-06-10T15:08:37;3.33;;;2.50;;
8312;SDS011;4194;43.408;24.626;2023-06-10T15:11:02;5.50;;;2.80;;
8312;SDS011;4194;43.408;24.626;2023-06-10T15:13:28;2.55;;;2.20;;
8312;SDS011;4194;43.408;24.626;2023-06-10T15:15:54;4.50;;;2.40;;
8312;SDS011;4194;43.408;24.626;2023-06-10T15:18:20;4.35;;;2.45;;
8312;SDS011;4194;43.408;24.626;2023-06-10T15:20:46;5.28;;;3.00;;
8312;SDS011;4194;43.408;24.626;2023-06-10T15:23:13;4.13;;;2.65;;
8312;SDS011;4194;43.408;24.626;2023-06-10T15:25:39;6.00;;;2.67;;
8312;SDS011;4194;43.408;24.626;2023-06-10T15:28:05;5.15;;;2.92;;